createdAt,value
2018-06-16T00:05:43.642Z,1.91
2018-06-16T00:11:38.666Z,2.33
2018-06-16T00:17:33.714Z,2.37
2018-06-16T00:23:28.690Z,2.25
2018-06-16T00:29:23.704Z,2.38
2018-06-16T00:35:18.638Z,2.06
2018-06-16T00:41:13.678Z,2.56
2018-06-16T00:47:08.740Z,2.06
2018-06-16T00:53:03.737Z,2.84
2018-06-16T00:58:58.665Z,2.04
2018-06-16T01:04:53.757Z,2.43
2018-06-16T01:10:48.669Z,2.25
2018-06-16T01:16:43.687Z,2.61
2018-06-16T01:22:38.674Z,3
2018-06-16T01:28:33.682Z,2.13
2018-06-16T01:34:28.674Z,2.28
2018-06-16T01:40:23.693Z,2.32
2018-06-16T01:46:18.678Z,2.2
2018-06-16T01:52:13.666Z,2.2
2018-06-16T01:58:08.651Z,2.54
2018-06-16T02:04:03.680Z,2.25
2018-06-16T02:09:58.691Z,2.05
2018-06-16T02:15:53.743Z,2.54
2018-06-16T02:21:48.694Z,2.31
2018-06-16T02:27:43.711Z,1.96
2018-06-16T02:33:38.677Z,2.08
2018-06-16T02:39:33.688Z,2.76
2018-06-16T02:45:28.665Z,2.53
2018-06-16T02:51:23.658Z,2.32
2018-06-16T02:57:18.650Z,2.62
2018-06-16T03:03:13.715Z,2.62
2018-06-16T03:09:08.722Z,2.7
2018-06-16T03:15:03.756Z,2.13
2018-06-16T03:20:58.729Z,2.43
2018-06-16T03:26:53.695Z,2.43
2018-06-16T03:32:48.671Z,2.33
2018-06-16T03:38:43.679Z,2.5
2018-06-16T03:44:38.686Z,2.4
2018-06-16T03:50:33.645Z,2.42
2018-06-16T03:56:28.680Z,2.15
2018-06-16T04:02:23.666Z,2.29
2018-06-16T04:08:18.714Z,2.47
2018-06-16T04:14:13.671Z,3.31
2018-06-16T04:20:08.693Z,2.57
2018-06-16T04:26:03.660Z,3.23
2018-06-16T04:31:58.700Z,5.17
2018-06-16T04:37:53.702Z,4.92
2018-06-16T04:43:48.713Z,4.76
2018-06-16T04:49:43.693Z,4.04
2018-06-16T04:55:38.689Z,3.65
2018-06-16T05:01:33.669Z,3.02
2018-06-16T05:07:28.699Z,2.69
2018-06-16T05:13:23.657Z,2.97
2018-06-16T05:19:18.689Z,2.93
2018-06-16T05:25:13.696Z,3.61
2018-06-16T05:31:08.675Z,2.85
2018-06-16T05:37:03.655Z,2.81
2018-06-16T05:42:58.689Z,2.81
2018-06-16T05:48:53.715Z,3.06
2018-06-16T05:54:48.675Z,3.08
2018-06-16T06:00:43.701Z,2.76
2018-06-16T06:06:38.685Z,2.79
2018-06-16T06:12:33.691Z,3.06
2018-06-16T06:18:28.680Z,2.84
2018-06-16T06:24:23.673Z,2.92
2018-06-16T06:30:18.683Z,3.35
2018-06-16T06:36:13.679Z,3.04
2018-06-16T06:42:08.662Z,2.6
2018-06-16T06:48:03.717Z,2.42
2018-06-16T06:53:58.803Z,2.65
2018-06-16T06:59:53.709Z,2.4
2018-06-16T07:05:48.764Z,2.86
2018-06-16T07:11:43.761Z,3.13
2018-06-16T07:17:38.685Z,2.68
2018-06-16T07:23:33.796Z,3.16
2018-06-16T07:29:28.692Z,3.23
2018-06-16T07:35:23.727Z,3.09
2018-06-16T07:41:18.724Z,2.72
2018-06-16T07:47:13.678Z,2.54
2018-06-16T07:53:08.672Z,2.36
2018-06-16T07:59:03.744Z,2.29
2018-06-16T08:04:58.700Z,2.65
2018-06-16T08:10:53.738Z,2.31
2018-06-16T08:16:48.766Z,2.37
2018-06-16T08:22:43.756Z,2.41
2018-06-16T08:28:38.729Z,2.58
2018-06-16T08:34:33.718Z,2.16
2018-06-16T08:40:28.735Z,2.27
2018-06-16T08:46:23.757Z,2.44
2018-06-16T08:52:19.699Z,2.32
2018-06-16T08:58:13.766Z,2.39
2018-06-16T09:04:08.792Z,2.74
2018-06-16T09:10:03.820Z,2.02
2018-06-16T09:15:58.763Z,2.47
2018-06-16T09:21:53.791Z,2.14
2018-06-16T09:27:48.783Z,2.16
2018-06-16T09:33:43.761Z,2.32
2018-06-16T09:39:38.759Z,2.5
2018-06-16T09:45:33.739Z,2.23
2018-06-16T09:51:28.732Z,2.32
2018-06-16T09:57:23.755Z,2.43
2018-06-16T10:03:18.766Z,2.32
2018-06-16T10:09:13.800Z,2.29
2018-06-16T10:15:08.825Z,2.3
2018-06-16T10:21:03.729Z,2.19
2018-06-16T10:26:58.771Z,2.24
2018-06-16T10:32:53.793Z,2.27
2018-06-16T10:38:48.773Z,2.13
2018-06-16T10:44:43.759Z,1.9
2018-06-16T10:50:38.850Z,2.1
2018-06-16T10:56:33.810Z,2.02
2018-06-16T11:02:28.825Z,2.39
2018-06-16T11:08:23.759Z,2.3
2018-06-16T11:14:18.777Z,2.42
2018-06-16T11:20:13.784Z,2.34
2018-06-16T11:26:08.876Z,2.48
2018-06-16T11:32:03.865Z,2.27
2018-06-16T11:37:58.821Z,2.28
2018-06-16T11:43:53.806Z,1.99
2018-06-16T11:49:48.815Z,1.99
2018-06-16T11:55:43.823Z,2.42
2018-06-16T12:01:38.853Z,2.21
2018-06-16T12:07:33.808Z,2.5
2018-06-16T12:13:28.867Z,2.61
2018-06-16T12:19:23.854Z,1.95
2018-06-16T12:25:18.808Z,2.23
2018-06-16T12:31:13.863Z,2.07
2018-06-16T12:37:08.857Z,2.31
2018-06-16T12:43:03.815Z,2.03
2018-06-16T12:48:58.834Z,2.48
2018-06-16T12:54:53.811Z,1.9
2018-06-16T13:00:48.918Z,2.18
2018-06-16T13:06:43.901Z,2.35
2018-06-16T13:12:38.860Z,2.17
2018-06-16T13:18:33.876Z,1.95
2018-06-16T13:24:28.872Z,2.24
2018-06-16T13:30:23.846Z,2.12
2018-06-16T13:36:18.864Z,1.83
2018-06-16T13:42:13.848Z,2.27
2018-06-16T13:48:08.871Z,2.17
2018-06-16T13:54:03.854Z,2.24
2018-06-16T13:59:58.896Z,2.26
2018-06-16T14:05:53.897Z,2.21
2018-06-16T14:11:48.911Z,2.31
2018-06-16T14:17:43.910Z,2.24
2018-06-16T14:23:38.909Z,2.21
2018-06-16T14:29:33.886Z,1.91
2018-06-16T14:35:28.925Z,2.46
2018-06-16T14:41:23.838Z,2.12
2018-06-16T14:47:18.896Z,2.37
2018-06-16T14:53:13.898Z,2.3
2018-06-16T14:59:08.862Z,2
2018-06-16T15:05:03.950Z,2.34
2018-06-16T15:10:58.854Z,2.55
2018-06-16T15:16:53.877Z,2.36
2018-06-16T15:22:48.887Z,2.21
2018-06-16T15:28:43.866Z,2.46
2018-06-16T15:34:41.124Z,2.32
2018-06-16T15:40:33.906Z,2.26
2018-06-16T15:46:28.936Z,2.9
2018-06-16T15:52:23.953Z,2.23
2018-06-16T15:58:18.946Z,2.33
2018-06-16T16:04:13.941Z,2.27
2018-06-16T16:10:08.866Z,2.33
2018-06-16T16:16:03.965Z,2.65
2018-06-16T16:21:58.919Z,2.24
2018-06-16T16:27:53.919Z,2.25
2018-06-16T16:33:48.963Z,2.27
2018-06-16T16:39:43.922Z,2.03
2018-06-16T16:45:38.926Z,2.79
2018-06-16T16:51:34.005Z,5.61
2018-06-16T16:57:28.880Z,3.9
2018-06-16T17:03:23.939Z,2.58
2018-06-16T17:09:18.950Z,2.58
2018-06-16T17:15:14.016Z,3.23
2018-06-16T17:21:08.938Z,2.88
2018-06-16T17:27:03.934Z,2.43
2018-06-16T17:32:58.930Z,2.39
2018-06-16T17:38:53.973Z,2.31
2018-06-16T17:44:48.964Z,2.43
2018-06-16T17:50:43.923Z,2.71
2018-06-16T17:56:38.908Z,2.6
2018-06-16T18:02:33.971Z,2.97
2018-06-16T18:08:28.956Z,2.66
2018-06-16T18:14:23.947Z,3.03
2018-06-16T18:20:18.949Z,3.31
2018-06-16T18:26:13.943Z,3.29
2018-06-16T18:32:08.959Z,3.03
2018-06-16T18:38:03.924Z,3.5
2018-06-16T18:43:58.993Z,3.21
2018-06-16T18:49:53.932Z,3.27
2018-06-16T18:55:49.018Z,3.97
2018-06-16T19:01:43.969Z,3.45
2018-06-16T19:07:38.935Z,3.58
2018-06-16T19:13:33.967Z,3.55
2018-06-16T19:19:28.957Z,3.45
2018-06-16T19:25:23.949Z,3.76
2018-06-16T19:31:19.005Z,3.89
2018-06-16T19:37:13.955Z,3.53
2018-06-16T19:43:08.994Z,3.33
2018-06-16T19:49:03.997Z,3.2
2018-06-16T19:54:58.988Z,3.03
2018-06-16T20:00:53.976Z,3.61
2018-06-16T20:06:48.981Z,3.14
2018-06-16T20:12:43.984Z,3.5
2018-06-16T20:18:39.019Z,3.14
2018-06-16T20:24:33.988Z,3.54
2018-06-16T20:30:28.980Z,3.83
2018-06-16T20:36:23.993Z,3.85
2018-06-16T20:42:18.992Z,3.8
2018-06-16T20:48:14.043Z,3.55
2018-06-16T20:54:08.971Z,3.53
2018-06-16T21:00:04.003Z,3.63
2018-06-16T21:05:58.981Z,3.17
2018-06-16T21:11:53.983Z,3.73
2018-06-16T21:17:49.061Z,3.7
2018-06-16T21:23:44.032Z,3.43
2018-06-16T21:29:39.026Z,2.93
2018-06-16T21:35:34.072Z,3.21
2018-06-16T21:41:29.063Z,3.26
2018-06-16T21:47:24.046Z,3.02
2018-06-16T21:53:19.021Z,3.35
2018-06-16T21:59:14.071Z,3.61
2018-06-16T22:05:09.077Z,3.05
2018-06-16T22:11:03.993Z,3.79
2018-06-16T22:16:59.018Z,3.28
2018-06-16T22:22:54.020Z,3.67
2018-06-16T22:28:49.037Z,3.49
2018-06-16T22:34:44.033Z,3.18
2018-06-16T22:40:39.020Z,3.16
2018-06-16T22:46:34.054Z,3.36
2018-06-16T22:52:29.028Z,3.45
2018-06-16T22:58:24.060Z,3.42
2018-06-16T23:02:49.531Z,4.17
2018-06-16T23:08:44.555Z,3.65
2018-06-16T23:14:39.583Z,3.61
2018-06-16T23:20:34.499Z,3.54
2018-06-16T23:26:29.572Z,3.43
2018-06-16T23:32:24.523Z,4.12
2018-06-16T23:38:19.598Z,3.67
2018-06-16T23:44:14.616Z,3.83
2018-06-16T23:50:09.576Z,3.86
2018-06-16T23:56:04.526Z,3.86
